sensor_id;sensor_type;location;lat;lon;timestamp;temperature;humidity
57390;DHT22;43217;52.694;6.214;2022-12-18T00:00:47;-3.00;99.90
57390;DHT22;43217;52.694;6.214;2022-12-18T00:03:14;-3.10;99.90
57390;DHT22;43217;52.694;6.214;2022-12-18T00:05:52;-3.00;99.90
57390;DHT22;43217;52.694;6.214;2022-12-18T00:08:18;-3.00;99.90
57390;DHT22;43217;52.694;6.214;2022-12-18T00:10:44;-3.10;99.90
57390;DHT22;43217;52.694;6.214;2022-12-18T00:13:10;-3.10;99.90
57390;DHT22;43217;52.694;6.214;2022-12-18T00:15:38;-3.10;99.90
57390;DHT22;43217;52.694;6.214;2022-12-18T00:18:04;-3.20;99.90
57390;DHT22;43217;52.694;6.214;2022-12-18T00:20:30;-3.20;99.90
57390;DHT22;43217;52.694;6.214;2022-12-18T00:22:56;-3.10;99.90
57390;DHT22;43217;52.694;6.214;2022-12-18T00:25:21;-3.20;99.90
57390;DHT22;43217;52.694;6.214;2022-12-18T00:27:47;-3.10;99.90
57390;DHT22;43217;52.694;6.214;2022-12-18T00:30:13;-3.20;99.90
57390;DHT22;43217;52.694;6.214;2022-12-18T00:32:39;-3.10;99.90
57390;DHT22;43217;52.694;6.214;2022-12-18T00:35:06;-3.10;99.90
57390;DHT22;43217;52.694;6.214;2022-12-18T00:37:33;-3.10;99.90
57390;DHT22;43217;52.694;6.214;2022-12-18T00:40:00;-3.10;99.90
57390;DHT22;43217;52.694;6.214;2022-12-18T00:42:25;-3.00;99.90
57390;DHT22;43217;52.694;6.214;2022-12-18T00:45:10;-3.10;99.90
57390;DHT22;43217;52.694;6.214;2022-12-18T00:47:35;-3.10;99.90
57390;DHT22;43217;52.694;6.214;2022-12-18T00:50:01;-3.00;99.90
57390;DHT22;43217;52.694;6.214;2022-12-18T00:52:27;-3.00;99.90
57390;DHT22;43217;52.694;6.214;2022-12-18T00:54:53;-3.00;99.90
57390;DHT22;43217;52.694;6.214;2022-12-18T00:57:18;-3.10;99.90
57390;DHT22;43217;52.694;6.214;2022-12-18T00:59:44;-3.10;99.90
57390;DHT22;43217;52.694;6.214;2022-12-18T01:02:10;-3.20;99.90
57390;DHT22;43217;52.694;6.214;2022-12-18T01:04:35;-3.20;99.90
57390;DHT22;43217;52.694;6.214;2022-12-18T01:07:01;-3.20;99.90
57390;DHT22;43217;52.694;6.214;2022-12-18T01:09:27;-3.20;99.90
57390;DHT22;43217;52.694;6.214;2022-12-18T01:11:52;-3.20;99.90
57390;DHT22;43217;52.694;6.214;2022-12-18T01:14:18;-3.30;99.90
57390;DHT22;43217;52.694;6.214;2022-12-18T01:16:43;-3.20;99.90
57390;DHT22;43217;52.694;6.214;2022-12-18T01:19:09;-3.20;99.90
57390;DHT22;43217;52.694;6.214;2022-12-18T01:21:35;-3.20;99.90
57390;DHT22;43217;52.694;6.214;2022-12-18T01:24:00;-3.20;99.90
57390;DHT22;43217;52.694;6.214;2022-12-18T01:26:26;-3.20;99.90
57390;DHT22;43217;52.694;6.214;2022-12-18T01:28:55;-3.20;99.90
57390;DHT22;43217;52.694;6.214;2022-12-18T01:31:27;-3.20;99.90
57390;DHT22;43217;52.694;6.214;2022-12-18T01:33:53;-3.40;99.90
57390;DHT22;43217;52.694;6.214;2022-12-18T01:36:31;-3.50;99.90
57390;DHT22;43217;52.694;6.214;2022-12-18T01:38:59;-3.50;99.90
57390;DHT22;43217;52.694;6.214;2022-12-18T01:41:28;-3.50;99.90
57390;DHT22;43217;52.694;6.214;2022-12-18T01:49:48;-3.70;99.90
57390;DHT22;43217;52.694;6.214;2022-12-18T01:52:15;-3.70;99.90
57390;DHT22;43217;52.694;6.214;2022-12-18T01:54:42;-3.70;99.90
57390;DHT22;43217;52.694;6.214;2022-12-18T01:57:08;-3.70;99.90
57390;DHT22;43217;52.694;6.214;2022-12-18T01:59:35;-3.70;99.90
57390;DHT22;43217;52.694;6.214;2022-12-18T02:02:02;-3.70;99.90
57390;DHT22;43217;52.694;6.214;2022-12-18T02:04:28;-3.80;99.90
57390;DHT22;43217;52.694;6.214;2022-12-18T02:09:41;-3.80;99.90
57390;DHT22;43217;52.694;6.214;2022-12-18T02:12:20;-3.90;99.90
57390;DHT22;43217;52.694;6.214;2022-12-18T02:14:49;-4.00;99.90
57390;DHT22;43217;52.694;6.214;2022-12-18T02:17:29;-4.00;99.90
57390;DHT22;43217;52.694;6.214;2022-12-18T02:20:09;-4.10;99.90
57390;DHT22;43217;52.694;6.214;2022-12-18T02:25:40;-4.10;99.90
57390;DHT22;43217;52.694;6.214;2022-12-18T02:28:12;-4.10;99.90
57390;DHT22;43217;52.694;6.214;2022-12-18T02:30:39;-4.10;99.90
57390;DHT22;43217;52.694;6.214;2022-12-18T02:33:07;-4.10;99.90
57390;DHT22;43217;52.694;6.214;2022-12-18T02:35:34;-4.10;99.90
57390;DHT22;43217;52.694;6.214;2022-12-18T02:38:03;-4.20;99.90
57390;DHT22;43217;52.694;6.214;2022-12-18T02:40:30;-4.20;99.90
57390;DHT22;43217;52.694;6.214;2022-12-18T02:43:12;-4.20;99.90
57390;DHT22;43217;52.694;6.214;2022-12-18T02:45:52;-4.30;99.90
57390;DHT22;43217;52.694;6.214;2022-12-18T02:48:22;-4.40;99.90
57390;DHT22;43217;52.694;6.214;2022-12-18T02:51:20;-4.40;99.90
57390;DHT22;43217;52.694;6.214;2022-12-18T02:53:58;-4.40;99.90
57390;DHT22;43217;52.694;6.214;2022-12-18T02:56:32;-4.50;99.90
57390;DHT22;43217;52.694;6.214;2022-12-18T02:59:17;-4.50;99.90
57390;DHT22;43217;52.694;6.214;2022-12-18T03:04:42;-4.50;99.90
57390;DHT22;43217;52.694;6.214;2022-12-18T03:07:19;-4.50;99.90
57390;DHT22;43217;52.694;6.214;2022-12-18T03:09:49;-4.50;99.90
57390;DHT22;43217;52.694;6.214;2022-12-18T03:12:23;-4.50;99.90
57390;DHT22;43217;52.694;6.214;2022-12-18T03:17:33;-4.50;99.90
57390;DHT22;43217;52.694;6.214;2022-12-18T03:20:05;-4.50;99.90
57390;DHT22;43217;52.694;6.214;2022-12-18T03:22:34;-4.60;99.90
57390;DHT22;43217;52.694;6.214;2022-12-18T03:25:03;-4.60;99.90
57390;DHT22;43217;52.694;6.214;2022-12-18T03:27:31;-4.60;99.90
57390;DHT22;43217;52.694;6.214;2022-12-18T03:30:05;-4.60;99.90
57390;DHT22;43217;52.694;6.214;2022-12-18T03:32:48;-4.60;99.90
57390;DHT22;43217;52.694;6.214;2022-12-18T03:35:20;-4.70;99.90
57390;DHT22;43217;52.694;6.214;2022-12-18T03:37:47;-4.70;99.90
57390;DHT22;43217;52.694;6.214;2022-12-18T03:40:12;-4.80;99.90
57390;DHT22;43217;52.694;6.214;2022-12-18T03:46:02;-4.70;99.90
57390;DHT22;43217;52.694;6.214;2022-12-18T03:48:52;-4.70;99.90
57390;DHT22;43217;52.694;6.214;2022-12-18T03:51:25;-4.70;99.90
57390;DHT22;43217;52.694;6.214;2022-12-18T03:54:11;-4.70;99.90
57390;DHT22;43217;52.694;6.214;2022-12-18T03:56:46;-4.80;99.90
57390;DHT22;43217;52.694;6.214;2022-12-18T03:59:15;-4.80;99.90
57390;DHT22;43217;52.694;6.214;2022-12-18T04:01:47;-4.70;99.90
57390;DHT22;43217;52.694;6.214;2022-12-18T04:04:15;-4.70;99.90
57390;DHT22;43217;52.694;6.214;2022-12-18T04:06:42;-4.70;99.90
57390;DHT22;43217;52.694;6.214;2022-12-18T04:09:09;-4.70;99.90
57390;DHT22;43217;52.694;6.214;2022-12-18T04:11:35;-4.60;99.90
57390;DHT22;43217;52.694;6.214;2022-12-18T04:14:00;-4.60;99.90
57390;DHT22;43217;52.694;6.214;2022-12-18T04:16:26;-4.60;99.90
57390;DHT22;43217;52.694;6.214;2022-12-18T04:18:53;-4.60;99.90
57390;DHT22;43217;52.694;6.214;2022-12-18T04:21:19;-4.60;99.90
57390;DHT22;43217;52.694;6.214;2022-12-18T04:23:45;-4.60;99.90
57390;DHT22;43217;52.694;6.214;2022-12-18T04:26:12;-4.60;99.90
57390;DHT22;43217;52.694;6.214;2022-12-18T04:28:37;-4.60;99.90
57390;DHT22;43217;52.694;6.214;2022-12-18T04:31:03;-4.60;99.90
57390;DHT22;43217;52.694;6.214;2022-12-18T04:33:29;-4.60;99.90
57390;DHT22;43217;52.694;6.214;2022-12-18T04:35:54;-4.60;99.90
57390;DHT22;43217;52.694;6.214;2022-12-18T04:38:20;-4.60;99.90
57390;DHT22;43217;52.694;6.214;2022-12-18T04:40:45;-4.60;99.90
57390;DHT22;43217;52.694;6.214;2022-12-18T04:43:11;-4.70;99.90
57390;DHT22;43217;52.694;6.214;2022-12-18T04:45:36;-4.60;99.90
57390;DHT22;43217;52.694;6.214;2022-12-18T04:48:03;-4.60;99.90
57390;DHT22;43217;52.694;6.214;2022-12-18T04:50:29;-4.60;99.90
57390;DHT22;43217;52.694;6.214;2022-12-18T04:52:55;-4.60;99.90
57390;DHT22;43217;52.694;6.214;2022-12-18T04:55:21;-4.50;99.90
57390;DHT22;43217;52.694;6.214;2022-12-18T04:57:46;-4.50;99.90
57390;DHT22;43217;52.694;6.214;2022-12-18T05:00:15;-4.60;99.90
57390;DHT22;43217;52.694;6.214;2022-12-18T05:02:41;-4.60;99.90
57390;DHT22;43217;52.694;6.214;2022-12-18T05:05:07;-4.60;99.90
57390;DHT22;43217;52.694;6.214;2022-12-18T05:07:33;-4.50;99.90
57390;DHT22;43217;52.694;6.214;2022-12-18T05:09:59;-4.50;99.90
57390;DHT22;43217;52.694;6.214;2022-12-18T05:12:24;-4.50;99.90
57390;DHT22;43217;52.694;6.214;2022-12-18T05:14:52;-4.50;99.90
57390;DHT22;43217;52.694;6.214;2022-12-18T05:17:21;-4.50;99.90
57390;DHT22;43217;52.694;6.214;2022-12-18T05:19:47;-4.50;99.90
57390;DHT22;43217;52.694;6.214;2022-12-18T05:22:12;-4.50;99.90
57390;DHT22;43217;52.694;6.214;2022-12-18T05:24:40;-4.50;99.90
57390;DHT22;43217;52.694;6.214;2022-12-18T05:27:06;-4.60;99.90
57390;DHT22;43217;52.694;6.214;2022-12-18T05:29:31;-4.60;99.90
57390;DHT22;43217;52.694;6.214;2022-12-18T05:31:57;-4.60;99.90
57390;DHT22;43217;52.694;6.214;2022-12-18T05:34:23;-4.60;99.90
57390;DHT22;43217;52.694;6.214;2022-12-18T05:36:48;-4.60;99.90
57390;DHT22;43217;52.694;6.214;2022-12-18T05:39:14;-4.60;99.90
57390;DHT22;43217;52.694;6.214;2022-12-18T05:41:39;-4.70;99.90
57390;DHT22;43217;52.694;6.214;2022-12-18T05:44:05;-4.70;99.90
57390;DHT22;43217;52.694;6.214;2022-12-18T05:46:30;-4.70;99.90
57390;DHT22;43217;52.694;6.214;2022-12-18T05:48:59;-4.70;99.90
57390;DHT22;43217;52.694;6.214;2022-12-18T05:51:26;-4.70;99.90
57390;DHT22;43217;52.694;6.214;2022-12-18T05:53:55;-4.70;99.90
57390;DHT22;43217;52.694;6.214;2022-12-18T05:56:22;-4.70;99.90
57390;DHT22;43217;52.694;6.214;2022-12-18T05:58:51;-4.70;99.90
57390;DHT22;43217;52.694;6.214;2022-12-18T06:01:19;-4.70;99.90
57390;DHT22;43217;52.694;6.214;2022-12-18T06:03:45;-4.70;99.90
57390;DHT22;43217;52.694;6.214;2022-12-18T06:06:18;-4.70;99.90
57390;DHT22;43217;52.694;6.214;2022-12-18T06:08:45;-4.70;99.90
57390;DHT22;43217;52.694;6.214;2022-12-18T06:11:11;-4.70;99.90
57390;DHT22;43217;52.694;6.214;2022-12-18T06:13:37;-4.70;99.90
57390;DHT22;43217;52.694;6.214;2022-12-18T06:16:04;-4.80;99.90
57390;DHT22;43217;52.694;6.214;2022-12-18T06:18:31;-4.80;99.90
57390;DHT22;43217;52.694;6.214;2022-12-18T06:20:57;-4.80;99.90
57390;DHT22;43217;52.694;6.214;2022-12-18T06:23:24;-4.80;99.90
57390;DHT22;43217;52.694;6.214;2022-12-18T06:25:56;-4.80;99.90
57390;DHT22;43217;52.694;6.214;2022-12-18T06:28:22;-4.70;99.90
57390;DHT22;43217;52.694;6.214;2022-12-18T06:30:48;-4.70;99.90
57390;DHT22;43217;52.694;6.214;2022-12-18T06:33:15;-4.70;99.90
57390;DHT22;43217;52.694;6.214;2022-12-18T06:35:41;-4.70;99.90
57390;DHT22;43217;52.694;6.214;2022-12-18T06:38:07;-4.70;99.90
57390;DHT22;43217;52.694;6.214;2022-12-18T06:40:32;-4.80;99.90
57390;DHT22;43217;52.694;6.214;2022-12-18T06:42:58;-4.70;99.90
57390;DHT22;43217;52.694;6.214;2022-12-18T06:45:24;-4.70;99.90
57390;DHT22;43217;52.694;6.214;2022-12-18T06:47:50;-4.70;99.90
57390;DHT22;43217;52.694;6.214;2022-12-18T06:50:16;-4.70;99.90
57390;DHT22;43217;52.694;6.214;2022-12-18T06:52:41;-4.70;99.90
57390;DHT22;43217;52.694;6.214;2022-12-18T06:55:10;-4.70;99.90
57390;DHT22;43217;52.694;6.214;2022-12-18T06:57:36;-4.70;99.90
57390;DHT22;43217;52.694;6.214;2022-12-18T07:00:02;-4.70;99.90
57390;DHT22;43217;52.694;6.214;2022-12-18T07:02:28;-4.80;99.90
57390;DHT22;43217;52.694;6.214;2022-12-18T07:04:53;-4.80;99.90
57390;DHT22;43217;52.694;6.214;2022-12-18T07:07:19;-4.80;99.90
57390;DHT22;43217;52.694;6.214;2022-12-18T07:09:45;-4.80;99.90
57390;DHT22;43217;52.694;6.214;2022-12-18T07:12:10;-4.80;99.90
57390;DHT22;43217;52.694;6.214;2022-12-18T07:14:36;-4.80;99.90
57390;DHT22;43217;52.694;6.214;2022-12-18T07:17:01;-4.80;99.90
57390;DHT22;43217;52.694;6.214;2022-12-18T07:19:27;-4.80;99.90
57390;DHT22;43217;52.694;6.214;2022-12-18T07:21:52;-4.80;99.90
57390;DHT22;43217;52.694;6.214;2022-12-18T07:24:18;-4.90;99.90
57390;DHT22;43217;52.694;6.214;2022-12-18T07:26:46;-4.90;99.90
57390;DHT22;43217;52.694;6.214;2022-12-18T07:29:12;-4.90;99.90
57390;DHT22;43217;52.694;6.214;2022-12-18T07:31:37;-4.90;99.90
57390;DHT22;43217;52.694;6.214;2022-12-18T07:34:03;-4.90;99.90
57390;DHT22;43217;52.694;6.214;2022-12-18T07:36:29;-4.90;99.90
57390;DHT22;43217;52.694;6.214;2022-12-18T07:38:54;-4.90;99.90
57390;DHT22;43217;52.694;6.214;2022-12-18T07:41:20;-4.90;99.90
57390;DHT22;43217;52.694;6.214;2022-12-18T07:43:46;-4.90;99.90
57390;DHT22;43217;52.694;6.214;2022-12-18T07:46:13;-4.90;99.90
57390;DHT22;43217;52.694;6.214;2022-12-18T07:48:43;-4.90;99.90
57390;DHT22;43217;52.694;6.214;2022-12-18T07:51:09;-4.90;99.90
57390;DHT22;43217;52.694;6.214;2022-12-18T07:53:35;-4.80;99.90
57390;DHT22;43217;52.694;6.214;2022-12-18T07:56:03;-4.90;99.90
57390;DHT22;43217;52.694;6.214;2022-12-18T07:58:30;-4.80;99.90
57390;DHT22;43217;52.694;6.214;2022-12-18T08:01:08;-4.90;99.90
57390;DHT22;43217;52.694;6.214;2022-12-18T08:03:34;-4.80;99.90
57390;DHT22;43217;52.694;6.214;2022-12-18T08:06:04;-4.80;99.90
57390;DHT22;43217;52.694;6.214;2022-12-18T08:08:30;-4.80;99.90
57390;DHT22;43217;52.694;6.214;2022-12-18T08:10:56;-4.80;99.90
57390;DHT22;43217;52.694;6.214;2022-12-18T08:13:23;-4.70;99.90
57390;DHT22;43217;52.694;6.214;2022-12-18T08:16:03;-4.70;99.90
57390;DHT22;43217;52.694;6.214;2022-12-18T08:18:29;-4.70;99.90
57390;DHT22;43217;52.694;6.214;2022-12-18T08:21:11;-4.70;99.90
57390;DHT22;43217;52.694;6.214;2022-12-18T08:23:37;-4.70;99.90
57390;DHT22;43217;52.694;6.214;2022-12-18T08:26:03;-4.70;99.90
57390;DHT22;43217;52.694;6.214;2022-12-18T08:28:29;-4.70;99.90
57390;DHT22;43217;52.694;6.214;2022-12-18T08:30:54;-4.70;99.90
57390;DHT22;43217;52.694;6.214;2022-12-18T08:33:20;-4.60;99.90
57390;DHT22;43217;52.694;6.214;2022-12-18T08:35:46;-4.60;99.90
57390;DHT22;43217;52.694;6.214;2022-12-18T08:38:11;-4.60;99.90
57390;DHT22;43217;52.694;6.214;2022-12-18T08:40:37;-4.50;99.90
57390;DHT22;43217;52.694;6.214;2022-12-18T08:43:02;-4.50;99.90
57390;DHT22;43217;52.694;6.214;2022-12-18T08:45:47;-4.40;99.90
57390;DHT22;43217;52.694;6.214;2022-12-18T08:48:12;-4.40;99.90
57390;DHT22;43217;52.694;6.214;2022-12-18T08:50:38;-4.40;99.90
57390;DHT22;43217;52.694;6.214;2022-12-18T08:53:04;-4.30;99.90
57390;DHT22;43217;52.694;6.214;2022-12-18T08:55:29;-4.30;99.90
57390;DHT22;43217;52.694;6.214;2022-12-18T08:57:55;-4.20;99.90
57390;DHT22;43217;52.694;6.214;2022-12-18T09:00:20;-4.20;99.90
57390;DHT22;43217;52.694;6.214;2022-12-18T09:02:46;-4.10;99.90
57390;DHT22;43217;52.694;6.214;2022-12-18T09:05:12;-4.10;99.90
57390;DHT22;43217;52.694;6.214;2022-12-18T09:07:37;-4.00;99.90
57390;DHT22;43217;52.694;6.214;2022-12-18T09:10:03;-3.90;99.90
57390;DHT22;43217;52.694;6.214;2022-12-18T09:12:29;-3.90;99.90
57390;DHT22;43217;52.694;6.214;2022-12-18T09:15:04;-3.80;99.90
57390;DHT22;43217;52.694;6.214;2022-12-18T09:17:29;-3.80;99.90
57390;DHT22;43217;52.694;6.214;2022-12-18T09:19:57;-3.70;99.90
57390;DHT22;43217;52.694;6.214;2022-12-18T09:22:23;-3.60;99.90
57390;DHT22;43217;52.694;6.214;2022-12-18T09:24:50;-3.50;99.90
57390;DHT22;43217;52.694;6.214;2022-12-18T09:27:15;-3.50;99.90
57390;DHT22;43217;52.694;6.214;2022-12-18T09:29:41;-3.30;99.90
57390;DHT22;43217;52.694;6.214;2022-12-18T09:32:06;-3.30;99.90
57390;DHT22;43217;52.694;6.214;2022-12-18T09:34:32;-3.20;99.90
57390;DHT22;43217;52.694;6.214;2022-12-18T09:36:58;-3.10;99.90
57390;DHT22;43217;52.694;6.214;2022-12-18T09:39:23;-3.00;99.90
57390;DHT22;43217;52.694;6.214;2022-12-18T09:41:55;-2.90;99.90
57390;DHT22;43217;52.694;6.214;2022-12-18T09:47:14;-2.70;99.90
57390;DHT22;43217;52.694;6.214;2022-12-18T09:49:47;-2.70;99.90
57390;DHT22;43217;52.694;6.214;2022-12-18T09:55:51;-2.60;99.90
57390;DHT22;43217;52.694;6.214;2022-12-18T09:58:02;-2.50;99.90
57390;DHT22;43217;52.694;6.214;2022-12-18T10:00:30;-2.50;99.90
57390;DHT22;43217;52.694;6.214;2022-12-18T10:03:01;-2.50;99.90
57390;DHT22;43217;52.694;6.214;2022-12-18T10:11:39;-2.40;99.90
57390;DHT22;43217;52.694;6.214;2022-12-18T10:16:57;-2.40;99.90
57390;DHT22;43217;52.694;6.214;2022-12-18T10:25:23;-2.30;99.90
57390;DHT22;43217;52.694;6.214;2022-12-18T10:27:53;-2.30;99.90
57390;DHT22;43217;52.694;6.214;2022-12-18T10:30:22;-2.20;99.90
57390;DHT22;43217;52.694;6.214;2022-12-18T10:32:48;-2.20;99.90
57390;DHT22;43217;52.694;6.214;2022-12-18T10:35:25;-2.10;99.90
57390;DHT22;43217;52.694;6.214;2022-12-18T10:38:25;-2.10;99.90
57390;DHT22;43217;52.694;6.214;2022-12-18T10:40:53;-2.10;99.90
57390;DHT22;43217;52.694;6.214;2022-12-18T10:43:23;-2.00;99.90
57390;DHT22;43217;52.694;6.214;2022-12-18T10:51:06;-1.80;99.90
57390;DHT22;43217;52.694;6.214;2022-12-18T10:53:34;-1.80;99.90
57390;DHT22;43217;52.694;6.214;2022-12-18T10:56:02;-1.70;99.90
57390;DHT22;43217;52.694;6.214;2022-12-18T10:58:37;-1.70;99.90
57390;DHT22;43217;52.694;6.214;2022-12-18T11:03:34;-1.60;99.90
57390;DHT22;43217;52.694;6.214;2022-12-18T11:06:05;-1.60;99.90
57390;DHT22;43217;52.694;6.214;2022-12-18T11:08:31;-1.60;99.90
57390;DHT22;43217;52.694;6.214;2022-12-18T11:10:57;-1.50;99.90
57390;DHT22;43217;52.694;6.214;2022-12-18T11:13:24;-1.50;99.90
57390;DHT22;43217;52.694;6.214;2022-12-18T11:15:51;-1.40;99.90
57390;DHT22;43217;52.694;6.214;2022-12-18T11:21:07;-1.30;99.90
57390;DHT22;43217;52.694;6.214;2022-12-18T11:23:34;-1.30;99.90
57390;DHT22;43217;52.694;6.214;2022-12-18T11:26:02;-1.30;99.90
57390;DHT22;43217;52.694;6.214;2022-12-18T11:34:08;-1.10;99.90
57390;DHT22;43217;52.694;6.214;2022-12-18T11:36:42;-1.10;99.90
57390;DHT22;43217;52.694;6.214;2022-12-18T11:39:22;-1.10;99.90
57390;DHT22;43217;52.694;6.214;2022-12-18T11:41:54;-1.10;99.90
57390;DHT22;43217;52.694;6.214;2022-12-18T11:44:57;-1.10;99.90
57390;DHT22;43217;52.694;6.214;2022-12-18T11:47:35;-1.00;99.90
57390;DHT22;43217;52.694;6.214;2022-12-18T11:50:16;-1.00;99.90
57390;DHT22;43217;52.694;6.214;2022-12-18T11:52:43;-1.00;99.90
57390;DHT22;43217;52.694;6.214;2022-12-18T11:55:37;-1.00;99.90
57390;DHT22;43217;52.694;6.214;2022-12-18T12:09:10;-0.90;99.90
57390;DHT22;43217;52.694;6.214;2022-12-18T12:17:14;-0.80;99.90
57390;DHT22;43217;52.694;6.214;2022-12-18T12:19:58;-0.80;99.90
57390;DHT22;43217;52.694;6.214;2022-12-18T12:31:21;-0.70;99.90
57390;DHT22;43217;52.694;6.214;2022-12-18T12:39:37;-0.60;99.90
57390;DHT22;43217;52.694;6.214;2022-12-18T12:42:08;-0.50;99.90
57390;DHT22;43217;52.694;6.214;2022-12-18T12:44:58;-0.50;99.90
57390;DHT22;43217;52.694;6.214;2022-12-18T12:47:33;-0.50;99.90
57390;DHT22;43217;52.694;6.214;2022-12-18T12:50:04;-0.50;99.90
57390;DHT22;43217;52.694;6.214;2022-12-18T12:52:35;-0.50;99.90
57390;DHT22;43217;52.694;6.214;2022-12-18T12:55:05;-0.50;99.90
57390;DHT22;43217;52.694;6.214;2022-12-18T12:57:44;-0.40;99.90
57390;DHT22;43217;52.694;6.214;2022-12-18T13:00:18;-0.40;99.90
57390;DHT22;43217;52.694;6.214;2022-12-18T13:05:38;-0.40;99.90
57390;DHT22;43217;52.694;6.214;2022-12-18T13:08:08;-0.40;99.90
57390;DHT22;43217;52.694;6.214;2022-12-18T13:10:41;-0.40;99.90
57390;DHT22;43217;52.694;6.214;2022-12-18T13:13:09;-0.40;99.90
57390;DHT22;43217;52.694;6.214;2022-12-18T13:16:02;-0.40;99.90
57390;DHT22;43217;52.694;6.214;2022-12-18T13:18:28;-0.40;99.90
57390;DHT22;43217;52.694;6.214;2022-12-18T13:23:35;-0.40;99.90
57390;DHT22;43217;52.694;6.214;2022-12-18T13:33:46;-0.30;99.90
57390;DHT22;43217;52.694;6.214;2022-12-18T13:36:25;-0.30;99.90
57390;DHT22;43217;52.694;6.214;2022-12-18T13:39:15;-0.30;99.90
57390;DHT22;43217;52.694;6.214;2022-12-18T13:41:54;-0.30;99.90
57390;DHT22;43217;52.694;6.214;2022-12-18T13:44:58;-0.30;99.90
57390;DHT22;43217;52.694;6.214;2022-12-18T13:47:35;-0.30;99.90
57390;DHT22;43217;52.694;6.214;2022-12-18T13:50:25;-0.30;99.90
57390;DHT22;43217;52.694;6.214;2022-12-18T13:52:51;-0.30;99.90
57390;DHT22;43217;52.694;6.214;2022-12-18T13:55:19;-0.30;99.90
57390;DHT22;43217;52.694;6.214;2022-12-18T13:57:46;-0.30;99.90
57390;DHT22;43217;52.694;6.214;2022-12-18T14:02:50;-0.30;99.90
57390;DHT22;43217;52.694;6.214;2022-12-18T14:05:32;-0.30;99.90
57390;DHT22;43217;52.694;6.214;2022-12-18T14:08:05;-0.30;99.90
57390;DHT22;43217;52.694;6.214;2022-12-18T14:10:31;-0.40;99.90
57390;DHT22;43217;52.694;6.214;2022-12-18T14:13:03;-0.40;99.90
57390;DHT22;43217;52.694;6.214;2022-12-18T14:15:35;-0.40;99.90
57390;DHT22;43217;52.694;6.214;2022-12-18T14:18:15;-0.40;99.90
57390;DHT22;43217;52.694;6.214;2022-12-18T14:20:44;-0.40;99.90
57390;DHT22;43217;52.694;6.214;2022-12-18T14:23:37;-0.40;99.90
57390;DHT22;43217;52.694;6.214;2022-12-18T14:28:45;-0.40;99.90
57390;DHT22;43217;52.694;6.214;2022-12-18T14:31:25;-0.40;99.90
57390;DHT22;43217;52.694;6.214;2022-12-18T14:33:52;-0.40;99.90
57390;DHT22;43217;52.694;6.214;2022-12-18T14:36:20;-0.40;99.90
57390;DHT22;43217;52.694;6.214;2022-12-18T14:38:54;-0.40;99.90
57390;DHT22;43217;52.694;6.214;2022-12-18T14:41:21;-0.40;99.90
57390;DHT22;43217;52.694;6.214;2022-12-18T14:43:50;-0.40;99.90
57390;DHT22;43217;52.694;6.214;2022-12-18T14:49:19;-0.40;99.90
57390;DHT22;43217;52.694;6.214;2022-12-18T14:51:49;-0.40;99.90
57390;DHT22;43217;52.694;6.214;2022-12-18T14:54:17;-0.40;99.90
57390;DHT22;43217;52.694;6.214;2022-12-18T14:56:49;-0.40;99.90
57390;DHT22;43217;52.694;6.214;2022-12-18T14:59:20;-0.40;99.90
57390;DHT22;43217;52.694;6.214;2022-12-18T15:01:57;-0.40;99.90
57390;DHT22;43217;52.694;6.214;2022-12-18T15:04:38;-0.50;99.90
57390;DHT22;43217;52.694;6.214;2022-12-18T15:07:22;-0.40;99.90
57390;DHT22;43217;52.694;6.214;2022-12-18T15:10:03;-0.40;99.90
57390;DHT22;43217;52.694;6.214;2022-12-18T15:12:41;-0.40;99.90
57390;DHT22;43217;52.694;6.214;2022-12-18T15:25:56;-0.40;99.90
57390;DHT22;43217;52.694;6.214;2022-12-18T15:33:45;-0.40;99.90
57390;DHT22;43217;52.694;6.214;2022-12-18T15:36:28;-0.40;99.90
57390;DHT22;43217;52.694;6.214;2022-12-18T15:38:57;-0.30;99.90
57390;DHT22;43217;52.694;6.214;2022-12-18T15:41:24;-0.30;99.90
57390;DHT22;43217;52.694;6.214;2022-12-18T15:43:52;-0.30;99.90
57390;DHT22;43217;52.694;6.214;2022-12-18T15:46:20;-0.30;99.90
57390;DHT22;43217;52.694;6.214;2022-12-18T15:48:50;-0.30;99.90
57390;DHT22;43217;52.694;6.214;2022-12-18T15:53:42;-0.30;99.90
57390;DHT22;43217;52.694;6.214;2022-12-18T15:56:15;-0.30;99.90
57390;DHT22;43217;52.694;6.214;2022-12-18T15:59:00;-0.30;99.90
57390;DHT22;43217;52.694;6.214;2022-12-18T16:01:28;-0.30;99.90
57390;DHT22;43217;52.694;6.214;2022-12-18T16:03:55;-0.30;99.90
57390;DHT22;43217;52.694;6.214;2022-12-18T16:06:21;-0.30;99.90
57390;DHT22;43217;52.694;6.214;2022-12-18T16:08:47;-0.30;99.90
57390;DHT22;43217;52.694;6.214;2022-12-18T16:11:26;-0.30;99.90
57390;DHT22;43217;52.694;6.214;2022-12-18T16:14:25;-0.30;99.90
57390;DHT22;43217;52.694;6.214;2022-12-18T16:16:56;-0.30;99.90
57390;DHT22;43217;52.694;6.214;2022-12-18T16:19:22;-0.30;99.90
57390;DHT22;43217;52.694;6.214;2022-12-18T16:21:50;-0.30;99.90
57390;DHT22;43217;52.694;6.214;2022-12-18T16:24:18;-0.30;99.90
57390;DHT22;43217;52.694;6.214;2022-12-18T16:26:44;-0.30;99.90
57390;DHT22;43217;52.694;6.214;2022-12-18T16:29:11;-0.30;99.90
57390;DHT22;43217;52.694;6.214;2022-12-18T16:31:37;-0.30;99.90
57390;DHT22;43217;52.694;6.214;2022-12-18T16:34:20;-0.30;99.90
57390;DHT22;43217;52.694;6.214;2022-12-18T16:36:51;-0.30;99.90
57390;DHT22;43217;52.694;6.214;2022-12-18T16:39:19;-0.30;99.90
57390;DHT22;43217;52.694;6.214;2022-12-18T16:41:45;-0.30;99.90
57390;DHT22;43217;52.694;6.214;2022-12-18T16:44:10;-0.30;99.90
57390;DHT22;43217;52.694;6.214;2022-12-18T16:46:37;-0.30;99.90
57390;DHT22;43217;52.694;6.214;2022-12-18T16:49:03;-0.30;99.90
57390;DHT22;43217;52.694;6.214;2022-12-18T16:51:38;-0.30;99.90
57390;DHT22;43217;52.694;6.214;2022-12-18T16:54:04;-0.20;99.90
57390;DHT22;43217;52.694;6.214;2022-12-18T16:56:30;-0.30;99.90
57390;DHT22;43217;52.694;6.214;2022-12-18T16:58:57;-0.20;99.90
57390;DHT22;43217;52.694;6.214;2022-12-18T17:01:24;-0.20;99.90
57390;DHT22;43217;52.694;6.214;2022-12-18T17:03:58;-0.30;99.90
57390;DHT22;43217;52.694;6.214;2022-12-18T17:06:25;-0.30;99.90
57390;DHT22;43217;52.694;6.214;2022-12-18T17:09:02;-0.20;99.90
57390;DHT22;43217;52.694;6.214;2022-12-18T17:11:30;-0.30;99.90
57390;DHT22;43217;52.694;6.214;2022-12-18T17:13:56;-0.30;99.90
57390;DHT22;43217;52.694;6.214;2022-12-18T17:16:23;-0.30;99.90
57390;DHT22;43217;52.694;6.214;2022-12-18T17:18:49;-0.30;99.90
57390;DHT22;43217;52.694;6.214;2022-12-18T17:21:15;-0.30;99.90
57390;DHT22;43217;52.694;6.214;2022-12-18T17:23:43;-0.20;99.90
57390;DHT22;43217;52.694;6.214;2022-12-18T17:26:09;-0.30;99.90
57390;DHT22;43217;52.694;6.214;2022-12-18T17:28:37;-0.20;99.90
57390;DHT22;43217;52.694;6.214;2022-12-18T17:31:19;-0.20;99.90
57390;DHT22;43217;52.694;6.214;2022-12-18T17:33:46;-0.20;99.90
57390;DHT22;43217;52.694;6.214;2022-12-18T17:36:12;-0.20;99.90
57390;DHT22;43217;52.694;6.214;2022-12-18T17:38:41;-0.20;99.90
57390;DHT22;43217;52.694;6.214;2022-12-18T17:41:08;-0.20;99.90
57390;DHT22;43217;52.694;6.214;2022-12-18T17:43:34;-0.20;99.90
57390;DHT22;43217;52.694;6.214;2022-12-18T17:46:01;-0.20;99.90
57390;DHT22;43217;52.694;6.214;2022-12-18T17:48:27;-0.20;99.90
57390;DHT22;43217;52.694;6.214;2022-12-18T17:50:53;-0.20;99.90
57390;DHT22;43217;52.694;6.214;2022-12-18T17:53:18;-0.20;99.90